createdAt,value
2019-02-25T00:02:51.349Z,92.00
2019-02-25T00:06:54.903Z,92.20
2019-02-25T00:10:58.457Z,93.00
2019-02-25T00:15:02.039Z,93.40
2019-02-25T00:19:05.887Z,93.10
2019-02-25T00:23:09.474Z,92.90
2019-02-25T00:27:13.019Z,93.50
2019-02-25T00:31:16.583Z,94.00
2019-02-25T00:35:20.147Z,94.20
2019-02-25T00:39:23.727Z,93.60
2019-02-25T00:43:27.307Z,92.90
2019-02-25T00:47:30.858Z,92.40
2019-02-25T00:51:34.418Z,92.50
2019-02-25T00:55:37.906Z,92.60
2019-02-25T00:59:41.487Z,92.80
2019-02-25T01:03:45.137Z,93.20
2019-02-25T01:07:48.690Z,92.60
2019-02-25T01:11:52.249Z,92.10
2019-02-25T01:15:55.802Z,91.40
2019-02-25T01:19:59.392Z,91.00
2019-02-25T01:24:02.975Z,91.60
2019-02-25T01:28:06.534Z,92.70
2019-02-25T01:32:10.097Z,93.40
2019-02-25T01:36:13.655Z,93.60
2019-02-25T01:40:17.255Z,93.30
2019-02-25T01:44:20.842Z,94.00
2019-02-25T01:48:24.506Z,93.00
2019-02-25T01:52:28.067Z,92.30
2019-02-25T01:56:31.628Z,92.10
2019-02-25T02:00:35.206Z,92.90
2019-02-25T02:04:38.782Z,92.80
2019-02-25T02:08:42.267Z,93.40
2019-02-25T02:12:45.838Z,94.70
2019-02-25T02:16:49.404Z,94.20
2019-02-25T02:20:52.973Z,93.40
2019-02-25T02:24:56.551Z,92.80
2019-02-25T02:29:00.116Z,93.80
2019-02-25T02:33:03.671Z,93.60
2019-02-25T02:37:07.238Z,93.40
2019-02-25T02:41:10.894Z,93.50
2019-02-25T02:45:17.557Z,93.50
2019-02-25T02:49:21.135Z,93.30
2019-02-25T02:53:24.698Z,95.50
2019-02-25T02:57:28.247Z,93.60
2019-02-25T03:01:31.816Z,92.90
2019-02-25T03:05:35.519Z,94.60
2019-02-25T03:09:39.094Z,95.10
2019-02-25T03:13:42.650Z,94.00
2019-02-25T03:17:46.226Z,92.90
2019-02-25T03:21:49.787Z,92.50
2019-02-25T03:25:53.362Z,92.90
2019-02-25T03:29:56.875Z,93.90
2019-02-25T03:34:00.440Z,94.00
2019-02-25T03:38:04.006Z,94.50
2019-02-25T03:42:07.652Z,94.90
2019-02-25T03:46:11.235Z,95.50
2019-02-25T03:50:15.159Z,96.10
2019-02-25T03:54:18.718Z,94.50
2019-02-25T03:58:22.280Z,93.90
2019-02-25T04:02:25.842Z,94.60
2019-02-25T04:06:29.424Z,94.80
2019-02-25T04:10:33.023Z,95.00
2019-02-25T04:14:36.591Z,95.40
2019-02-25T04:18:40.159Z,95.40
2019-02-25T04:22:43.714Z,95.90
2019-02-25T04:26:47.301Z,95.50
2019-02-25T04:30:50.886Z,94.30
2019-02-25T04:34:54.451Z,94.20
2019-02-25T04:38:58.027Z,95.30
2019-02-25T04:43:01.599Z,96.30
2019-02-25T04:47:05.184Z,96.40
2019-02-25T04:51:08.770Z,96.60
2019-02-25T04:55:13.470Z,95.90
2019-02-25T04:59:17.210Z,94.70
2019-02-25T05:03:20.772Z,94.10
2019-02-25T05:07:24.359Z,94.30
2019-02-25T05:11:29.651Z,95.60
2019-02-25T05:15:34.641Z,96.10
2019-02-25T05:19:38.195Z,96.40
2019-02-25T05:23:41.870Z,97.30
2019-02-25T05:27:45.460Z,96.80
2019-02-25T05:31:49.048Z,95.70
2019-02-25T05:35:52.627Z,96.60
2019-02-25T05:39:56.190Z,96.40
2019-02-25T05:43:59.759Z,94.90
2019-02-25T05:48:03.360Z,94.80
2019-02-25T05:52:06.937Z,95.10
2019-02-25T05:56:10.520Z,95.50
2019-02-25T06:00:23.795Z,95.20
2019-02-25T06:04:27.364Z,94.10
2019-02-25T06:08:30.929Z,94.50
2019-02-25T06:12:34.519Z,95.30
2019-02-25T06:16:38.127Z,95.70
2019-02-25T06:20:41.687Z,95.30
2019-02-25T06:24:45.247Z,95.30
2019-02-25T06:28:48.822Z,95.40
2019-02-25T06:32:52.414Z,95.40
2019-02-25T06:36:56.002Z,95.90
2019-02-25T06:40:59.557Z,96.90
2019-02-25T06:45:03.192Z,96.50
2019-02-25T06:49:06.768Z,96.10
2019-02-25T06:53:10.347Z,95.90
2019-02-25T06:57:13.942Z,94.70
2019-02-25T07:01:17.498Z,94.20
2019-02-25T07:05:23.376Z,94.60
2019-02-25T07:09:31.813Z,95.10
2019-02-25T07:13:46.969Z,94.70
2019-02-25T07:17:55.159Z,94.50
2019-02-25T07:22:03.436Z,94.40
2019-02-25T07:26:08.594Z,93.50
2019-02-25T07:30:26.035Z,92.70
2019-02-25T07:34:33.917Z,92.30
2019-02-25T07:38:39.910Z,91.20
2019-02-25T07:42:57.307Z,90.70
2019-02-25T07:47:20.951Z,90.20
2019-02-25T07:51:26.159Z,87.10
2019-02-25T07:55:37.214Z,85.20
2019-02-25T07:59:45.479Z,85.20
2019-02-25T08:03:59.926Z,81.70
2019-02-25T08:08:05.142Z,79.90
2019-02-25T08:12:12.780Z,75.50
2019-02-25T08:16:17.979Z,75.80
2019-02-25T08:20:26.284Z,75.70
2019-02-25T08:24:41.561Z,74.20
2019-02-25T08:29:03.928Z,73.40
2019-02-25T08:33:09.119Z,76.80
2019-02-25T08:37:17.397Z,77.60
2019-02-25T08:41:28.781Z,72.60
2019-02-25T08:45:36.900Z,69.60
2019-02-25T08:49:42.235Z,65.80
2019-02-25T08:53:45.823Z,66.90
2019-02-25T08:57:49.388Z,69.50
2019-02-25T09:01:53.010Z,69.20
2019-02-25T09:05:57.014Z,67.60
2019-02-25T09:10:00.508Z,66.80
2019-02-25T09:14:04.140Z,64.50
2019-02-25T09:18:06.627Z,61.90
2019-02-25T09:22:10.189Z,59.80
2019-02-25T09:26:13.791Z,61.40
2019-02-25T09:30:18.622Z,59.90
2019-02-25T09:38:33.094Z,52.30
2019-02-25T09:42:36.664Z,54.90
2019-02-25T09:46:40.254Z,53.70
2019-02-25T09:50:43.839Z,50.30
2019-02-25T09:54:47.398Z,51.90
2019-02-25T09:58:52.001Z,54.80
2019-02-25T10:02:57.369Z,54.10
2019-02-25T10:07:02.489Z,53.10
2019-02-25T10:11:06.523Z,52.50
2019-02-25T10:15:15.794Z,53.30
2019-02-25T10:19:19.351Z,51.90
2019-02-25T10:23:22.923Z,53.70
2019-02-25T10:27:26.507Z,51.90
2019-02-25T10:31:30.095Z,52.10
2019-02-25T10:35:33.687Z,52.60
2019-02-25T10:39:37.242Z,54.90
2019-02-25T10:43:40.849Z,57.70
2019-02-25T10:47:46.454Z,58.10
2019-02-25T10:51:49.636Z,58.20
2019-02-25T10:55:56.555Z,54.80
2019-02-25T11:00:00.310Z,56.80
2019-02-25T11:04:04.000Z,56.90
2019-02-25T11:08:11.156Z,55.00
2019-02-25T11:12:14.539Z,55.80
2019-02-25T11:16:18.693Z,51.90
2019-02-25T11:20:23.396Z,53.00
2019-02-25T11:24:26.955Z,51.70
2019-02-25T11:28:31.863Z,50.10
2019-02-25T11:32:35.778Z,51.40
2019-02-25T11:36:39.359Z,49.30
2019-02-25T11:40:43.008Z,50.00
2019-02-25T11:44:46.583Z,50.80
2019-02-25T11:48:50.175Z,51.10
2019-02-25T11:52:53.761Z,52.50
2019-02-25T11:56:57.383Z,49.50
2019-02-25T12:01:01.020Z,49.60
2019-02-25T12:05:06.803Z,46.50
2019-02-25T12:09:10.407Z,48.10
2019-02-25T12:13:14.010Z,49.40
2019-02-25T12:17:17.595Z,47.90
2019-02-25T12:21:21.151Z,45.70
2019-02-25T12:25:25.560Z,48.30
2019-02-25T12:29:29.166Z,46.90
2019-02-25T12:33:32.766Z,49.80
2019-02-25T12:37:36.393Z,43.30
2019-02-25T12:41:39.966Z,53.80
2019-02-25T12:45:43.589Z,48.80
2019-02-25T12:49:47.109Z,48.30
2019-02-25T12:53:50.631Z,49.70
2019-02-25T12:57:54.219Z,49.10
2019-02-25T13:01:57.796Z,50.70
2019-02-25T13:06:01.675Z,47.60
2019-02-25T13:10:08.771Z,46.40
2019-02-25T13:14:12.408Z,47.50
2019-02-25T13:18:15.986Z,50.10
2019-02-25T13:22:19.542Z,44.90
2019-02-25T13:26:23.103Z,47.50
2019-02-25T13:30:26.686Z,42.10
2019-02-25T13:34:30.582Z,41.50
2019-02-25T13:38:34.171Z,43.70
2019-02-25T13:42:37.731Z,43.70
2019-02-25T13:46:41.301Z,44.50
2019-02-25T13:50:44.867Z,46.00
2019-02-25T13:54:48.450Z,43.70
2019-02-25T13:58:52.036Z,43.60
2019-02-25T14:02:55.595Z,44.60
2019-02-25T14:06:59.155Z,38.80
2019-02-25T14:11:02.749Z,40.10
2019-02-25T14:15:08.647Z,40.80
2019-02-25T14:19:12.594Z,38.30
2019-02-25T14:23:16.201Z,35.40
2019-02-25T14:27:19.882Z,36.60
2019-02-25T14:31:23.468Z,38.30
2019-02-25T14:35:31.223Z,40.50
2019-02-25T14:39:35.964Z,41.20
2019-02-25T14:43:46.196Z,40.80
2019-02-25T14:47:46.961Z,40.50
2019-02-25T14:51:51.587Z,43.50
2019-02-25T14:55:56.034Z,44.60
2019-02-25T15:00:00.464Z,44.70
2019-02-25T15:04:06.347Z,40.80
2019-02-25T15:08:11.062Z,44.50
2019-02-25T15:12:14.647Z,42.50
2019-02-25T15:16:18.218Z,44.40
2019-02-25T15:20:24.013Z,40.30
2019-02-25T15:24:28.124Z,40.60
2019-02-25T15:28:31.773Z,39.90
2019-02-25T15:32:37.113Z,41.80
2019-02-25T15:36:40.634Z,38.80
2019-02-25T15:40:44.287Z,42.70
2019-02-25T15:44:49.312Z,43.90
2019-02-25T15:48:53.124Z,43.10
2019-02-25T15:52:56.956Z,43.20
2019-02-25T15:57:02.001Z,38.60
2019-02-25T16:01:06.219Z,40.30
2019-02-25T16:05:11.318Z,39.80
2019-02-25T16:09:17.097Z,41.80
2019-02-25T16:13:20.722Z,43.80
2019-02-25T16:17:24.529Z,47.40
2019-02-25T16:21:28.143Z,48.20
2019-02-25T16:25:32.222Z,46.60
2019-02-25T16:29:36.262Z,48.30
2019-02-25T16:33:39.831Z,48.70
2019-02-25T16:37:43.471Z,48.10
2019-02-25T16:41:47.778Z,49.70
2019-02-25T16:45:52.084Z,50.80
2019-02-25T16:49:56.397Z,56.90
2019-02-25T16:54:01.271Z,59.80
2019-02-25T16:58:06.923Z,64.80
2019-02-25T17:02:13.969Z,66.50
2019-02-25T17:06:15.710Z,63.70
2019-02-25T17:10:24.080Z,68.40
2019-02-25T17:14:25.696Z,66.00
2019-02-25T17:18:30.878Z,71.50
2019-02-25T17:22:34.562Z,69.20
2019-02-25T17:26:38.526Z,74.60
2019-02-25T17:30:42.914Z,74.60
2019-02-25T17:34:47.290Z,68.80
2019-02-25T17:38:51.946Z,73.90
2019-02-25T17:42:56.320Z,80.00
2019-02-25T17:47:00.214Z,84.10
2019-02-25T17:51:05.302Z,83.40
2019-02-25T17:55:14.643Z,80.70
2019-02-25T17:59:18.214Z,79.20
2019-02-25T18:03:22.524Z,80.70
2019-02-25T18:07:27.699Z,80.60
2019-02-25T18:11:31.267Z,78.50
2019-02-25T18:15:35.189Z,78.50
2019-02-25T18:19:39.195Z,79.40
2019-02-25T18:23:43.994Z,84.30
2019-02-25T18:27:49.689Z,84.10
2019-02-25T18:31:52.849Z,83.30
2019-02-25T18:35:58.092Z,81.70
2019-02-25T18:40:01.878Z,79.50
2019-02-25T18:44:06.956Z,79.30
2019-02-25T18:48:10.754Z,79.40
2019-02-25T18:52:14.766Z,80.90
2019-02-25T18:56:20.466Z,81.60
2019-02-25T19:00:36.331Z,82.50
2019-02-25T19:04:41.393Z,85.50
2019-02-25T19:08:45.344Z,84.50
2019-02-25T19:12:59.161Z,84.20
2019-02-25T19:17:08.518Z,84.00
2019-02-25T19:21:17.609Z,81.40
2019-02-25T19:25:28.856Z,75.90
2019-02-25T19:29:40.669Z,79.20
2019-02-25T19:33:50.307Z,73.80
2019-02-25T19:38:05.379Z,73.20
2019-02-25T19:42:18.250Z,70.50
2019-02-25T19:46:29.965Z,68.20
2019-02-25T19:50:51.084Z,65.80
2019-02-25T19:54:50.716Z,64.40
2019-02-25T19:58:55.891Z,65.80
2019-02-25T20:03:05.716Z,65.60
2019-02-25T20:07:07.692Z,65.70
2019-02-25T20:11:12.468Z,65.60
2019-02-25T20:15:21.257Z,66.30
2019-02-25T20:19:26.780Z,67.30
2019-02-25T20:23:32.507Z,68.10
2019-02-25T20:27:37.722Z,68.90
2019-02-25T20:31:42.750Z,75.40
2019-02-25T20:35:51.027Z,75.50
2019-02-25T20:39:51.766Z,73.10
2019-02-25T20:43:56.216Z,71.00
2019-02-25T20:48:01.933Z,72.30
2019-02-25T20:52:05.676Z,76.00
2019-02-25T20:56:09.218Z,79.70
2019-02-25T21:00:20.037Z,79.40
2019-02-25T21:04:23.686Z,77.00
2019-02-25T21:08:27.242Z,76.80
2019-02-25T21:12:30.871Z,76.10
2019-02-25T21:16:34.674Z,79.90
2019-02-25T21:20:38.395Z,80.70
2019-02-25T21:24:41.962Z,84.20
2019-02-25T21:28:45.508Z,84.80
2019-02-25T21:32:50.143Z,87.30
2019-02-25T21:36:56.184Z,84.50
2019-02-25T21:40:59.562Z,87.90
2019-02-25T21:45:03.330Z,88.30
2019-02-25T21:49:08.399Z,86.70
2019-02-25T21:53:13.866Z,86.60
2019-02-25T21:57:17.370Z,86.00
2019-02-25T22:01:20.863Z,85.70
2019-02-25T22:05:24.438Z,87.00
2019-02-25T22:09:35.982Z,88.40
2019-02-25T22:13:33.718Z,87.90
2019-02-25T22:17:38.036Z,87.40
2019-02-25T22:21:42.479Z,86.80
2019-02-25T22:25:46.046Z,86.90
2019-02-25T22:29:49.617Z,84.40
2019-02-25T22:33:53.090Z,85.90
2019-02-25T22:37:58.168Z,89.30
2019-02-25T22:42:03.559Z,90.30
2019-02-25T22:46:09.214Z,90.10
2019-02-25T22:50:15.124Z,90.60
2019-02-25T22:54:19.223Z,91.70
2019-02-25T22:58:22.986Z,91.80
2019-02-25T23:02:28.108Z,92.00
2019-02-25T23:06:31.713Z,91.80
2019-02-25T23:10:38.091Z,90.50
2019-02-25T23:14:40.869Z,90.40
2019-02-25T23:18:47.741Z,91.80
2019-02-25T23:22:50.908Z,93.30
2019-02-25T23:26:55.222Z,91.80
2019-02-25T23:30:59.687Z,91.30
2019-02-25T23:35:03.414Z,90.70
2019-02-25T23:39:07.038Z,90.80
2019-02-25T23:43:12.035Z,91.20
2019-02-25T23:47:15.820Z,91.50
2019-02-25T23:51:21.137Z,91.50
2019-02-25T23:55:27.039Z,91.40
2019-02-25T23:59:29.813Z,91.50
